sensor_id;sensor_type;location;lat;lon;timestamp;P1;durP1;ratioP1;P2;durP2;ratioP2
19525;SDS011;9907;42.676;26.348;2023-03-16T00:01:04;12.90;;;8.97;;
19525;SDS011;9907;42.676;26.348;2023-03-16T00:03:30;13.97;;;10.10;;
19525;SDS011;9907;42.676;26.348;2023-03-16T00:05:55;12.83;;;9.97;;
19525;SDS011;9907;42.676;26.348;2023-03-16T00:08:21;11.57;;;8.90;;
19525;SDS011;9907;42.676;26.348;2023-03-16T00:10:47;13.10;;;9.70;;
19525;SDS011;9907;42.676;26.348;2023-03-16T00:13:13;14.43;;;10.30;;
19525;SDS011;9907;42.676;26.348;2023-03-16T00:15:49;11.93;;;9.53;;
19525;SDS011;9907;42.676;26.348;2023-03-16T00:18:19;11.73;;;9.43;;
19525;SDS011;9907;42.676;26.348;2023-03-16T00:20:49;11.70;;;9.30;;
19525;SDS011;9907;42.676;26.348;2023-03-16T00:23:16;12.07;;;9.63;;
19525;SDS011;9907;42.676;26.348;2023-03-16T00:25:41;13.50;;;9.43;;
19525;SDS011;9907;42.676;26.348;2023-03-16T00:28:07;10.67;;;9.63;;
19525;SDS011;9907;42.676;26.348;2023-03-16T00:30:32;13.53;;;9.80;;
19525;SDS011;9907;42.676;26.348;2023-03-16T00:32:58;12.27;;;9.90;;
19525;SDS011;9907;42.676;26.348;2023-03-16T00:35:23;13.00;;;10.57;;
19525;SDS011;9907;42.676;26.348;2023-03-16T00:37:49;13.60;;;9.70;;
19525;SDS011;9907;42.676;26.348;2023-03-16T00:40:15;10.13;;;8.00;;
19525;SDS011;9907;42.676;26.348;2023-03-16T00:42:40;13.40;;;9.67;;
19525;SDS011;9907;42.676;26.348;2023-03-16T00:45:06;11.13;;;7.93;;
19525;SDS011;9907;42.676;26.348;2023-03-16T00:47:32;8.80;;;6.87;;
19525;SDS011;9907;42.676;26.348;2023-03-16T00:49:58;6.93;;;6.23;;
19525;SDS011;9907;42.676;26.348;2023-03-16T00:52:25;7.77;;;6.43;;
19525;SDS011;9907;42.676;26.348;2023-03-16T00:54:51;9.03;;;7.40;;
19525;SDS011;9907;42.676;26.348;2023-03-16T00:57:19;7.87;;;6.60;;
19525;SDS011;9907;42.676;26.348;2023-03-16T00:59:45;8.93;;;7.17;;
19525;SDS011;9907;42.676;26.348;2023-03-16T01:02:11;9.67;;;7.23;;
19525;SDS011;9907;42.676;26.348;2023-03-16T01:04:37;11.13;;;8.73;;
19525;SDS011;9907;42.676;26.348;2023-03-16T01:07:07;10.07;;;7.50;;
19525;SDS011;9907;42.676;26.348;2023-03-16T01:09:35;8.47;;;7.40;;
19525;SDS011;9907;42.676;26.348;2023-03-16T01:12:01;9.77;;;8.70;;
19525;SDS011;9907;42.676;26.348;2023-03-16T01:14:30;13.87;;;9.73;;
19525;SDS011;9907;42.676;26.348;2023-03-16T01:16:57;12.03;;;9.60;;
19525;SDS011;9907;42.676;26.348;2023-03-16T01:19:22;10.10;;;8.70;;
19525;SDS011;9907;42.676;26.348;2023-03-16T01:21:48;12.03;;;8.97;;
19525;SDS011;9907;42.676;26.348;2023-03-16T01:24:13;9.90;;;8.23;;
19525;SDS011;9907;42.676;26.348;2023-03-16T01:26:38;10.80;;;7.87;;
19525;SDS011;9907;42.676;26.348;2023-03-16T01:29:04;12.57;;;9.73;;
19525;SDS011;9907;42.676;26.348;2023-03-16T01:31:30;13.20;;;10.07;;
19525;SDS011;9907;42.676;26.348;2023-03-16T01:33:55;8.40;;;7.20;;
19525;SDS011;9907;42.676;26.348;2023-03-16T01:36:21;8.43;;;6.77;;
19525;SDS011;9907;42.676;26.348;2023-03-16T01:38:47;8.17;;;6.87;;
19525;SDS011;9907;42.676;26.348;2023-03-16T01:41:12;7.10;;;6.17;;
19525;SDS011;9907;42.676;26.348;2023-03-16T01:43:39;8.83;;;7.03;;
19525;SDS011;9907;42.676;26.348;2023-03-16T01:48:32;7.93;;;6.67;;
19525;SDS011;9907;42.676;26.348;2023-03-16T01:51:06;8.27;;;7.30;;
19525;SDS011;9907;42.676;26.348;2023-03-16T01:53:36;9.23;;;7.20;;
19525;SDS011;9907;42.676;26.348;2023-03-16T01:56:04;9.00;;;8.00;;
19525;SDS011;9907;42.676;26.348;2023-03-16T01:58:34;9.70;;;8.30;;
19525;SDS011;9907;42.676;26.348;2023-03-16T02:01:01;14.53;;;9.03;;
19525;SDS011;9907;42.676;26.348;2023-03-16T02:03:27;16.30;;;11.63;;
19525;SDS011;9907;42.676;26.348;2023-03-16T02:08:49;16.27;;;12.57;;
19525;SDS011;9907;42.676;26.348;2023-03-16T02:11:19;16.10;;;12.73;;
19525;SDS011;9907;42.676;26.348;2023-03-16T02:13:46;19.10;;;13.63;;
19525;SDS011;9907;42.676;26.348;2023-03-16T02:16:13;17.20;;;13.90;;
19525;SDS011;9907;42.676;26.348;2023-03-16T02:18:46;16.23;;;12.40;;
19525;SDS011;9907;42.676;26.348;2023-03-16T02:23:57;17.57;;;14.03;;
19525;SDS011;9907;42.676;26.348;2023-03-16T02:29:05;17.83;;;14.27;;
19525;SDS011;9907;42.676;26.348;2023-03-16T02:31:53;18.80;;;14.20;;
19525;SDS011;9907;42.676;26.348;2023-03-16T02:34:21;17.13;;;13.77;;
19525;SDS011;9907;42.676;26.348;2023-03-16T02:36:47;16.83;;;13.97;;
19525;SDS011;9907;42.676;26.348;2023-03-16T02:39:16;18.77;;;14.40;;
19525;SDS011;9907;42.676;26.348;2023-03-16T02:41:42;16.77;;;14.40;;
19525;SDS011;9907;42.676;26.348;2023-03-16T02:44:11;17.47;;;14.67;;
19525;SDS011;9907;42.676;26.348;2023-03-16T02:46:42;18.50;;;14.50;;
19525;SDS011;9907;42.676;26.348;2023-03-16T02:49:14;18.20;;;14.60;;
19525;SDS011;9907;42.676;26.348;2023-03-16T02:51:45;17.47;;;15.17;;
19525;SDS011;9907;42.676;26.348;2023-03-16T02:54:11;18.87;;;15.93;;
19525;SDS011;9907;42.676;26.348;2023-03-16T02:56:36;14.83;;;12.87;;
19525;SDS011;9907;42.676;26.348;2023-03-16T02:59:02;12.90;;;11.50;;
19525;SDS011;9907;42.676;26.348;2023-03-16T03:01:28;12.73;;;10.40;;
19525;SDS011;9907;42.676;26.348;2023-03-16T03:03:53;14.17;;;10.43;;
19525;SDS011;9907;42.676;26.348;2023-03-16T03:06:19;12.37;;;9.63;;
19525;SDS011;9907;42.676;26.348;2023-03-16T03:08:44;10.13;;;8.13;;
19525;SDS011;9907;42.676;26.348;2023-03-16T03:11:10;10.67;;;8.07;;
19525;SDS011;9907;42.676;26.348;2023-03-16T03:13:35;10.00;;;7.80;;
19525;SDS011;9907;42.676;26.348;2023-03-16T03:16:03;9.40;;;7.97;;
19525;SDS011;9907;42.676;26.348;2023-03-16T03:18:28;8.73;;;7.87;;
19525;SDS011;9907;42.676;26.348;2023-03-16T03:20:54;10.60;;;7.93;;
19525;SDS011;9907;42.676;26.348;2023-03-16T03:23:20;10.23;;;7.33;;
19525;SDS011;9907;42.676;26.348;2023-03-16T03:25:45;9.40;;;7.97;;
19525;SDS011;9907;42.676;26.348;2023-03-16T03:28:11;12.23;;;9.90;;
19525;SDS011;9907;42.676;26.348;2023-03-16T03:30:37;11.33;;;9.10;;
19525;SDS011;9907;42.676;26.348;2023-03-16T03:33:03;10.73;;;8.43;;
19525;SDS011;9907;42.676;26.348;2023-03-16T03:35:28;10.97;;;8.57;;
19525;SDS011;9907;42.676;26.348;2023-03-16T03:37:54;10.90;;;8.73;;
19525;SDS011;9907;42.676;26.348;2023-03-16T03:40:19;10.37;;;9.37;;
19525;SDS011;9907;42.676;26.348;2023-03-16T03:42:45;11.27;;;9.67;;
19525;SDS011;9907;42.676;26.348;2023-03-16T03:45:11;10.93;;;9.83;;
19525;SDS011;9907;42.676;26.348;2023-03-16T03:47:38;14.00;;;10.07;;
19525;SDS011;9907;42.676;26.348;2023-03-16T03:50:05;11.07;;;9.63;;
19525;SDS011;9907;42.676;26.348;2023-03-16T03:52:32;11.23;;;10.03;;
19525;SDS011;9907;42.676;26.348;2023-03-16T03:54:58;13.43;;;10.03;;
19525;SDS011;9907;42.676;26.348;2023-03-16T03:57:23;11.50;;;9.73;;
19525;SDS011;9907;42.676;26.348;2023-03-16T03:59:49;12.90;;;9.70;;
19525;SDS011;9907;42.676;26.348;2023-03-16T04:02:14;14.90;;;10.53;;
19525;SDS011;9907;42.676;26.348;2023-03-16T04:04:40;13.20;;;10.77;;
19525;SDS011;9907;42.676;26.348;2023-03-16T04:07:06;13.30;;;10.77;;
19525;SDS011;9907;42.676;26.348;2023-03-16T04:09:35;12.70;;;10.47;;
19525;SDS011;9907;42.676;26.348;2023-03-16T04:12:01;12.50;;;10.70;;
19525;SDS011;9907;42.676;26.348;2023-03-16T04:14:28;13.40;;;10.80;;
19525;SDS011;9907;42.676;26.348;2023-03-16T04:16:54;12.77;;;10.93;;
19525;SDS011;9907;42.676;26.348;2023-03-16T04:19:21;11.67;;;10.27;;
19525;SDS011;9907;42.676;26.348;2023-03-16T04:21:48;12.07;;;10.77;;
19525;SDS011;9907;42.676;26.348;2023-03-16T04:24:14;13.43;;;10.70;;
19525;SDS011;9907;42.676;26.348;2023-03-16T04:26:40;13.83;;;10.43;;
19525;SDS011;9907;42.676;26.348;2023-03-16T04:29:09;13.37;;;10.83;;
19525;SDS011;9907;42.676;26.348;2023-03-16T04:31:35;12.57;;;11.37;;
19525;SDS011;9907;42.676;26.348;2023-03-16T04:34:00;12.67;;;11.03;;
19525;SDS011;9907;42.676;26.348;2023-03-16T04:36:26;13.10;;;11.50;;
19525;SDS011;9907;42.676;26.348;2023-03-16T04:38:52;12.70;;;11.40;;
19525;SDS011;9907;42.676;26.348;2023-03-16T04:41:17;15.43;;;11.90;;
19525;SDS011;9907;42.676;26.348;2023-03-16T04:43:46;16.13;;;12.57;;
19525;SDS011;9907;42.676;26.348;2023-03-16T04:46:11;16.50;;;12.83;;
19525;SDS011;9907;42.676;26.348;2023-03-16T04:48:37;14.07;;;12.30;;
19525;SDS011;9907;42.676;26.348;2023-03-16T04:51:03;15.00;;;12.27;;
19525;SDS011;9907;42.676;26.348;2023-03-16T04:53:30;13.07;;;11.37;;
19525;SDS011;9907;42.676;26.348;2023-03-16T04:55:56;13.57;;;12.17;;
19525;SDS011;9907;42.676;26.348;2023-03-16T04:58:22;12.30;;;10.80;;
19525;SDS011;9907;42.676;26.348;2023-03-16T05:00:51;13.33;;;11.33;;
19525;SDS011;9907;42.676;26.348;2023-03-16T05:03:18;13.33;;;10.93;;
19525;SDS011;9907;42.676;26.348;2023-03-16T05:05:45;13.60;;;11.47;;
19525;SDS011;9907;42.676;26.348;2023-03-16T05:08:11;12.27;;;11.03;;
19525;SDS011;9907;42.676;26.348;2023-03-16T05:10:37;12.63;;;10.73;;
19525;SDS011;9907;42.676;26.348;2023-03-16T05:13:03;11.77;;;10.57;;
19525;SDS011;9907;42.676;26.348;2023-03-16T05:15:29;14.43;;;11.00;;
19525;SDS011;9907;42.676;26.348;2023-03-16T05:17:54;11.97;;;10.67;;
19525;SDS011;9907;42.676;26.348;2023-03-16T05:20:22;13.00;;;11.43;;
19525;SDS011;9907;42.676;26.348;2023-03-16T05:22:48;14.53;;;12.43;;
19525;SDS011;9907;42.676;26.348;2023-03-16T05:25:14;16.30;;;11.30;;
19525;SDS011;9907;42.676;26.348;2023-03-16T05:27:41;13.40;;;12.00;;
19525;SDS011;9907;42.676;26.348;2023-03-16T05:30:09;12.33;;;11.13;;
19525;SDS011;9907;42.676;26.348;2023-03-16T05:32:36;12.93;;;11.63;;
19525;SDS011;9907;42.676;26.348;2023-03-16T05:35:02;13.93;;;11.17;;
19525;SDS011;9907;42.676;26.348;2023-03-16T05:37:28;13.83;;;12.33;;
19525;SDS011;9907;42.676;26.348;2023-03-16T05:39:53;13.87;;;12.07;;
19525;SDS011;9907;42.676;26.348;2023-03-16T05:42:22;13.00;;;11.60;;
19525;SDS011;9907;42.676;26.348;2023-03-16T05:44:51;17.27;;;12.13;;
19525;SDS011;9907;42.676;26.348;2023-03-16T05:47:17;14.77;;;12.53;;
19525;SDS011;9907;42.676;26.348;2023-03-16T05:49:43;12.60;;;11.37;;
19525;SDS011;9907;42.676;26.348;2023-03-16T05:52:09;12.60;;;11.30;;
19525;SDS011;9907;42.676;26.348;2023-03-16T05:54:35;11.47;;;10.37;;
19525;SDS011;9907;42.676;26.348;2023-03-16T05:57:00;11.63;;;10.43;;
19525;SDS011;9907;42.676;26.348;2023-03-16T05:59:26;12.53;;;11.23;;
19525;SDS011;9907;42.676;26.348;2023-03-16T06:01:51;12.23;;;10.70;;
19525;SDS011;9907;42.676;26.348;2023-03-16T06:04:17;12.40;;;10.87;;
19525;SDS011;9907;42.676;26.348;2023-03-16T06:06:42;11.53;;;10.33;;
19525;SDS011;9907;42.676;26.348;2023-03-16T06:09:10;9.37;;;8.37;;
19525;SDS011;9907;42.676;26.348;2023-03-16T06:11:41;8.90;;;7.87;;
19525;SDS011;9907;42.676;26.348;2023-03-16T06:14:12;10.00;;;9.00;;
19525;SDS011;9907;42.676;26.348;2023-03-16T06:16:39;8.00;;;7.30;;
19525;SDS011;9907;42.676;26.348;2023-03-16T06:19:09;7.93;;;7.13;;
19525;SDS011;9907;42.676;26.348;2023-03-16T06:21:38;6.70;;;5.93;;
19525;SDS011;9907;42.676;26.348;2023-03-16T06:24:04;5.97;;;5.40;;
19525;SDS011;9907;42.676;26.348;2023-03-16T06:26:37;6.57;;;5.80;;
19525;SDS011;9907;42.676;26.348;2023-03-16T06:29:03;5.20;;;4.73;;
19525;SDS011;9907;42.676;26.348;2023-03-16T06:31:37;4.50;;;4.10;;
19525;SDS011;9907;42.676;26.348;2023-03-16T06:34:03;4.30;;;3.90;;
19525;SDS011;9907;42.676;26.348;2023-03-16T06:36:29;4.50;;;4.10;;
19525;SDS011;9907;42.676;26.348;2023-03-16T06:38:55;5.07;;;4.57;;
19525;SDS011;9907;42.676;26.348;2023-03-16T06:41:20;4.97;;;4.37;;
19525;SDS011;9907;42.676;26.348;2023-03-16T06:43:46;5.20;;;4.70;;
19525;SDS011;9907;42.676;26.348;2023-03-16T06:46:12;5.27;;;3.93;;
19525;SDS011;9907;42.676;26.348;2023-03-16T06:48:37;4.30;;;3.90;;
19525;SDS011;9907;42.676;26.348;2023-03-16T06:51:06;3.87;;;3.57;;
19525;SDS011;9907;42.676;26.348;2023-03-16T06:53:32;4.17;;;3.77;;
19525;SDS011;9907;42.676;26.348;2023-03-16T06:56:15;3.60;;;3.30;;
19525;SDS011;9907;42.676;26.348;2023-03-16T06:58:47;4.20;;;3.80;;
19525;SDS011;9907;42.676;26.348;2023-03-16T07:01:13;3.60;;;3.30;;
19525;SDS011;9907;42.676;26.348;2023-03-16T07:03:38;3.53;;;3.23;;
19525;SDS011;9907;42.676;26.348;2023-03-16T07:06:04;3.20;;;2.90;;
19525;SDS011;9907;42.676;26.348;2023-03-16T07:08:43;4.00;;;3.60;;
19525;SDS011;9907;42.676;26.348;2023-03-16T07:11:11;3.80;;;3.50;;
19525;SDS011;9907;42.676;26.348;2023-03-16T07:13:38;4.07;;;3.20;;
19525;SDS011;9907;42.676;26.348;2023-03-16T07:16:04;2.80;;;2.60;;
19525;SDS011;9907;42.676;26.348;2023-03-16T07:18:30;3.57;;;3.27;;
19525;SDS011;9907;42.676;26.348;2023-03-16T07:20:56;7.13;;;6.03;;
19525;SDS011;9907;42.676;26.348;2023-03-16T07:23:22;3.50;;;3.20;;
19525;SDS011;9907;42.676;26.348;2023-03-16T07:25:49;3.30;;;2.90;;
19525;SDS011;9907;42.676;26.348;2023-03-16T07:28:16;3.37;;;3.07;;
19525;SDS011;9907;42.676;26.348;2023-03-16T07:30:43;3.20;;;2.90;;
19525;SDS011;9907;42.676;26.348;2023-03-16T07:33:10;2.83;;;2.63;;
19525;SDS011;9907;42.676;26.348;2023-03-16T07:35:36;2.63;;;2.43;;
19525;SDS011;9907;42.676;26.348;2023-03-16T07:38:04;2.60;;;2.40;;
19525;SDS011;9907;42.676;26.348;2023-03-16T07:40:29;2.83;;;2.63;;
19525;SDS011;9907;42.676;26.348;2023-03-16T07:42:56;3.93;;;3.17;;
19525;SDS011;9907;42.676;26.348;2023-03-16T07:45:21;2.80;;;2.60;;
19525;SDS011;9907;42.676;26.348;2023-03-16T07:47:47;2.60;;;2.40;;
19525;SDS011;9907;42.676;26.348;2023-03-16T07:50:12;2.57;;;2.10;;
19525;SDS011;9907;42.676;26.348;2023-03-16T07:52:40;3.37;;;3.07;;
19525;SDS011;9907;42.676;26.348;2023-03-16T07:55:07;3.00;;;2.47;;
19525;SDS011;9907;42.676;26.348;2023-03-16T07:57:33;2.20;;;2.00;;
19525;SDS011;9907;42.676;26.348;2023-03-16T07:59:59;2.10;;;1.90;;
19525;SDS011;9907;42.676;26.348;2023-03-16T08:02:29;4.53;;;2.23;;
19525;SDS011;9907;42.676;26.348;2023-03-16T08:04:55;2.30;;;2.10;;
19525;SDS011;9907;42.676;26.348;2023-03-16T08:07:20;2.00;;;1.90;;
19525;SDS011;9907;42.676;26.348;2023-03-16T08:09:46;3.43;;;2.47;;
19525;SDS011;9907;42.676;26.348;2023-03-16T08:15:17;2.00;;;1.80;;
19525;SDS011;9907;42.676;26.348;2023-03-16T08:17:43;3.23;;;1.90;;
19525;SDS011;9907;42.676;26.348;2023-03-16T08:20:10;2.07;;;1.60;;
19525;SDS011;9907;42.676;26.348;2023-03-16T08:22:38;1.40;;;1.30;;
19525;SDS011;9907;42.676;26.348;2023-03-16T08:25:05;2.20;;;1.50;;
19525;SDS011;9907;42.676;26.348;2023-03-16T08:27:35;1.53;;;1.40;;
19525;SDS011;9907;42.676;26.348;2023-03-16T08:30:03;1.80;;;1.70;;
19525;SDS011;9907;42.676;26.348;2023-03-16T08:32:30;1.23;;;1.13;;
19525;SDS011;9907;42.676;26.348;2023-03-16T08:34:56;1.23;;;1.13;;
19525;SDS011;9907;42.676;26.348;2023-03-16T08:37:24;1.00;;;1.00;;
19525;SDS011;9907;42.676;26.348;2023-03-16T08:39:51;2.30;;;1.57;;
19525;SDS011;9907;42.676;26.348;2023-03-16T08:42:18;1.30;;;1.20;;
19525;SDS011;9907;42.676;26.348;2023-03-16T08:44:50;1.00;;;1.00;;
19525;SDS011;9907;42.676;26.348;2023-03-16T08:47:20;0.97;;;0.90;;
19525;SDS011;9907;42.676;26.348;2023-03-16T08:49:47;1.30;;;1.20;;
19525;SDS011;9907;42.676;26.348;2023-03-16T08:52:13;1.53;;;1.30;;
19525;SDS011;9907;42.676;26.348;2023-03-16T08:54:40;1.10;;;1.00;;
19525;SDS011;9907;42.676;26.348;2023-03-16T08:57:06;1.33;;;1.23;;
19525;SDS011;9907;42.676;26.348;2023-03-16T08:59:33;1.57;;;1.47;;
19525;SDS011;9907;42.676;26.348;2023-03-16T09:01:58;1.13;;;1.10;;
19525;SDS011;9907;42.676;26.348;2023-03-16T09:04:33;1.23;;;1.13;;
19525;SDS011;9907;42.676;26.348;2023-03-16T09:07:05;1.27;;;1.17;;
19525;SDS011;9907;42.676;26.348;2023-03-16T09:09:31;1.97;;;1.07;;
19525;SDS011;9907;42.676;26.348;2023-03-16T09:11:58;0.93;;;0.93;;
19525;SDS011;9907;42.676;26.348;2023-03-16T09:14:23;1.27;;;1.17;;
19525;SDS011;9907;42.676;26.348;2023-03-16T09:16:49;1.53;;;1.40;;
19525;SDS011;9907;42.676;26.348;2023-03-16T09:19:16;1.67;;;1.53;;
19525;SDS011;9907;42.676;26.348;2023-03-16T09:21:42;2.47;;;1.70;;
19525;SDS011;9907;42.676;26.348;2023-03-16T09:24:10;1.13;;;1.13;;
19525;SDS011;9907;42.676;26.348;2023-03-16T09:26:38;1.30;;;1.20;;
19525;SDS011;9907;42.676;26.348;2023-03-16T09:29:04;1.00;;;1.00;;
19525;SDS011;9907;42.676;26.348;2023-03-16T09:31:31;2.57;;;1.83;;
19525;SDS011;9907;42.676;26.348;2023-03-16T09:33:57;1.50;;;1.40;;
19525;SDS011;9907;42.676;26.348;2023-03-16T09:36:23;0.90;;;0.80;;
19525;SDS011;9907;42.676;26.348;2023-03-16T09:38:49;1.37;;;1.13;;
19525;SDS011;9907;42.676;26.348;2023-03-16T09:43:56;4.53;;;3.43;;
19525;SDS011;9907;42.676;26.348;2023-03-16T09:49:09;2.50;;;2.10;;
19525;SDS011;9907;42.676;26.348;2023-03-16T09:52:43;4.43;;;2.97;;
19525;SDS011;9907;42.676;26.348;2023-03-16T10:00:16;1.70;;;1.60;;
19525;SDS011;9907;42.676;26.348;2023-03-16T10:05:23;1.00;;;1.00;;
19525;SDS011;9907;42.676;26.348;2023-03-16T10:08:08;1.70;;;1.60;;
19525;SDS011;9907;42.676;26.348;2023-03-16T10:15:58;1.70;;;1.60;;
19525;SDS011;9907;42.676;26.348;2023-03-16T10:18:29;2.40;;;2.20;;
19525;SDS011;9907;42.676;26.348;2023-03-16T10:20:59;1.80;;;1.40;;
19525;SDS011;9907;42.676;26.348;2023-03-16T10:23:27;1.37;;;1.27;;
19525;SDS011;9907;42.676;26.348;2023-03-16T10:25:58;1.37;;;1.00;;
19525;SDS011;9907;42.676;26.348;2023-03-16T10:28:25;1.03;;;1.00;;
19525;SDS011;9907;42.676;26.348;2023-03-16T10:30:52;1.30;;;1.20;;
19525;SDS011;9907;42.676;26.348;2023-03-16T10:33:24;1.67;;;1.10;;
19525;SDS011;9907;42.676;26.348;2023-03-16T10:40:52;3.13;;;1.50;;
19525;SDS011;9907;42.676;26.348;2023-03-16T10:43:18;1.50;;;1.40;;
19525;SDS011;9907;42.676;26.348;2023-03-16T10:45:44;1.10;;;1.00;;
19525;SDS011;9907;42.676;26.348;2023-03-16T10:48:18;0.90;;;0.90;;
19525;SDS011;9907;42.676;26.348;2023-03-16T10:50:50;0.80;;;0.80;;
19525;SDS011;9907;42.676;26.348;2023-03-16T10:53:24;0.87;;;0.80;;
19525;SDS011;9907;42.676;26.348;2023-03-16T10:56:00;0.60;;;0.60;;
19525;SDS011;9907;42.676;26.348;2023-03-16T10:58:37;0.60;;;0.57;;
19525;SDS011;9907;42.676;26.348;2023-03-16T11:01:09;1.67;;;1.00;;
19525;SDS011;9907;42.676;26.348;2023-03-16T11:03:38;0.80;;;0.80;;
19525;SDS011;9907;42.676;26.348;2023-03-16T11:06:06;1.03;;;1.00;;
19525;SDS011;9907;42.676;26.348;2023-03-16T11:08:42;1.17;;;1.10;;
19525;SDS011;9907;42.676;26.348;2023-03-16T11:11:51;1.60;;;1.20;;
19525;SDS011;9907;42.676;26.348;2023-03-16T11:14:00;0.77;;;0.77;;
19525;SDS011;9907;42.676;26.348;2023-03-16T11:19:24;0.80;;;0.80;;
19525;SDS011;9907;42.676;26.348;2023-03-16T11:21:56;0.90;;;0.90;;
19525;SDS011;9907;42.676;26.348;2023-03-16T11:24:29;1.03;;;1.00;;
19525;SDS011;9907;42.676;26.348;2023-03-16T11:26:57;1.47;;;1.37;;
19525;SDS011;9907;42.676;26.348;2023-03-16T11:32:03;1.30;;;1.20;;
19525;SDS011;9907;42.676;26.348;2023-03-16T11:34:35;1.13;;;1.00;;
19525;SDS011;9907;42.676;26.348;2023-03-16T11:39:43;1.00;;;1.00;;
19525;SDS011;9907;42.676;26.348;2023-03-16T11:44:54;2.27;;;2.07;;
19525;SDS011;9907;42.676;26.348;2023-03-16T12:01:53;0.80;;;0.80;;
19525;SDS011;9907;42.676;26.348;2023-03-16T12:07:08;0.93;;;0.83;;
19525;SDS011;9907;42.676;26.348;2023-03-16T12:10:07;1.00;;;1.00;;
19525;SDS011;9907;42.676;26.348;2023-03-16T12:15:37;1.27;;;1.17;;
19525;SDS011;9907;42.676;26.348;2023-03-16T12:21:14;1.93;;;1.50;;
19525;SDS011;9907;42.676;26.348;2023-03-16T12:26:43;0.57;;;0.57;;
19525;SDS011;9907;42.676;26.348;2023-03-16T12:34:15;2.13;;;1.53;;
19525;SDS011;9907;42.676;26.348;2023-03-16T12:42:48;3.50;;;1.90;;
19525;SDS011;9907;42.676;26.348;2023-03-16T12:45:38;2.07;;;1.10;;
19525;SDS011;9907;42.676;26.348;2023-03-16T12:48:24;2.70;;;2.10;;
19525;SDS011;9907;42.676;26.348;2023-03-16T12:50:58;1.53;;;1.40;;
19525;SDS011;9907;42.676;26.348;2023-03-16T12:53:44;1.00;;;1.00;;
19525;SDS011;9907;42.676;26.348;2023-03-16T12:56:18;1.93;;;1.70;;
19525;SDS011;9907;42.676;26.348;2023-03-16T12:58:50;1.40;;;1.30;;
19525;SDS011;9907;42.676;26.348;2023-03-16T13:01:47;1.87;;;1.30;;
19525;SDS011;9907;42.676;26.348;2023-03-16T13:04:19;1.80;;;1.60;;
19525;SDS011;9907;42.676;26.348;2023-03-16T13:06:49;1.37;;;1.27;;
19525;SDS011;9907;42.676;26.348;2023-03-16T13:09:26;1.43;;;1.33;;
19525;SDS011;9907;42.676;26.348;2023-03-16T13:11:55;1.90;;;1.13;;
19525;SDS011;9907;42.676;26.348;2023-03-16T13:14:35;1.30;;;1.07;;
19525;SDS011;9907;42.676;26.348;2023-03-16T13:19:41;1.10;;;1.00;;
19525;SDS011;9907;42.676;26.348;2023-03-16T13:24:52;2.10;;;1.10;;
19525;SDS011;9907;42.676;26.348;2023-03-16T13:27:26;1.23;;;1.17;;
19525;SDS011;9907;42.676;26.348;2023-03-16T13:29:58;0.63;;;0.63;;
19525;SDS011;9907;42.676;26.348;2023-03-16T13:32:30;1.00;;;1.00;;
19525;SDS011;9907;42.676;26.348;2023-03-16T13:34:58;1.53;;;1.07;;
19525;SDS011;9907;42.676;26.348;2023-03-16T13:37:26;1.80;;;1.53;;
19525;SDS011;9907;42.676;26.348;2023-03-16T13:39:54;1.37;;;1.20;;
19525;SDS011;9907;42.676;26.348;2023-03-16T13:42:25;1.10;;;1.10;;
19525;SDS011;9907;42.676;26.348;2023-03-16T13:44:55;1.20;;;1.10;;
19525;SDS011;9907;42.676;26.348;2023-03-16T13:47:23;0.90;;;0.90;;
19525;SDS011;9907;42.676;26.348;2023-03-16T13:49:58;0.63;;;0.63;;
19525;SDS011;9907;42.676;26.348;2023-03-16T13:52:28;0.97;;;0.97;;
19525;SDS011;9907;42.676;26.348;2023-03-16T13:54:56;1.40;;;1.30;;
19525;SDS011;9907;42.676;26.348;2023-03-16T13:57:26;1.47;;;1.37;;
19525;SDS011;9907;42.676;26.348;2023-03-16T14:02:40;1.77;;;1.67;;
19525;SDS011;9907;42.676;26.348;2023-03-16T14:05:08;1.57;;;1.20;;
19525;SDS011;9907;42.676;26.348;2023-03-16T14:07:44;1.10;;;1.10;;
19525;SDS011;9907;42.676;26.348;2023-03-16T14:10:11;1.67;;;1.20;;
19525;SDS011;9907;42.676;26.348;2023-03-16T14:15:46;1.10;;;1.10;;
19525;SDS011;9907;42.676;26.348;2023-03-16T14:18:18;0.93;;;0.93;;
19525;SDS011;9907;42.676;26.348;2023-03-16T14:20:49;1.80;;;1.70;;
19525;SDS011;9907;42.676;26.348;2023-03-16T14:23:21;1.43;;;1.33;;
19525;SDS011;9907;42.676;26.348;2023-03-16T14:26:02;2.40;;;1.33;;
19525;SDS011;9907;42.676;26.348;2023-03-16T14:28:29;1.10;;;1.00;;
19525;SDS011;9907;42.676;26.348;2023-03-16T14:31:04;1.50;;;1.40;;
19525;SDS011;9907;42.676;26.348;2023-03-16T14:33:32;1.43;;;1.23;;
19525;SDS011;9907;42.676;26.348;2023-03-16T14:36:14;1.70;;;1.60;;
19525;SDS011;9907;42.676;26.348;2023-03-16T14:38:42;1.70;;;1.60;;
19525;SDS011;9907;42.676;26.348;2023-03-16T14:43:58;3.77;;;3.37;;
19525;SDS011;9907;42.676;26.348;2023-03-16T14:46:29;2.90;;;1.97;;
19525;SDS011;9907;42.676;26.348;2023-03-16T14:52:48;6.33;;;2.33;;
19525;SDS011;9907;42.676;26.348;2023-03-16T14:54:58;1.27;;;1.17;;
19525;SDS011;9907;42.676;26.348;2023-03-16T15:00:27;1.10;;;1.10;;
19525;SDS011;9907;42.676;26.348;2023-03-16T15:02:58;1.50;;;1.40;;
19525;SDS011;9907;42.676;26.348;2023-03-16T15:05:32;1.67;;;1.57;;
19525;SDS011;9907;42.676;26.348;2023-03-16T15:08:10;1.63;;;1.53;;
19525;SDS011;9907;42.676;26.348;2023-03-16T15:11:06;1.30;;;1.20;;
19525;SDS011;9907;42.676;26.348;2023-03-16T15:13:32;5.17;;;3.30;;
19525;SDS011;9907;42.676;26.348;2023-03-16T15:16:04;5.00;;;4.50;;
19525;SDS011;9907;42.676;26.348;2023-03-16T15:18:31;8.93;;;6.23;;
19525;SDS011;9907;42.676;26.348;2023-03-16T15:20:58;3.83;;;3.30;;
19525;SDS011;9907;42.676;26.348;2023-03-16T15:23:24;7.00;;;4.47;;
19525;SDS011;9907;42.676;26.348;2023-03-16T15:25:50;1.70;;;1.60;;
19525;SDS011;9907;42.676;26.348;2023-03-16T15:28:23;1.30;;;1.30;;
19525;SDS011;9907;42.676;26.348;2023-03-16T15:30:53;1.70;;;1.60;;
19525;SDS011;9907;42.676;26.348;2023-03-16T15:33:20;2.67;;;1.97;;
19525;SDS011;9907;42.676;26.348;2023-03-16T15:35:47;19.13;;;5.67;;
19525;SDS011;9907;42.676;26.348;2023-03-16T15:41:00;3.73;;;3.40;;
19525;SDS011;9907;42.676;26.348;2023-03-16T15:43:27;2.50;;;2.20;;
19525;SDS011;9907;42.676;26.348;2023-03-16T15:45:54;2.73;;;2.50;;
19525;SDS011;9907;42.676;26.348;2023-03-16T15:48:22;2.00;;;1.80;;
19525;SDS011;9907;42.676;26.348;2023-03-16T15:50:53;1.47;;;1.37;;
19525;SDS011;9907;42.676;26.348;2023-03-16T15:56:07;1.40;;;1.30;;
19525;SDS011;9907;42.676;26.348;2023-03-16T15:58:35;1.70;;;1.60;;
19525;SDS011;9907;42.676;26.348;2023-03-16T16:01:04;5.67;;;3.17;;
19525;SDS011;9907;42.676;26.348;2023-03-16T16:03:41;3.30;;;2.73;;
19525;SDS011;9907;42.676;26.348;2023-03-16T16:06:10;1.90;;;1.80;;
19525;SDS011;9907;42.676;26.348;2023-03-16T17:28:41;9.13;;;4.87;;
19525;SDS011;9907;42.676;26.348;2023-03-16T17:31:11;11.83;;;6.73;;
19525;SDS011;9907;42.676;26.348;2023-03-16T17:33:43;8.93;;;4.23;;
19525;SDS011;9907;42.676;26.348;2023-03-16T17:36:14;6.13;;;3.50;;
19525;SDS011;9907;42.676;26.348;2023-03-16T17:38:40;14.20;;;6.60;;
19525;SDS011;9907;42.676;26.348;2023-03-16T17:41:07;3.93;;;2.90;;
19525;SDS011;9907;42.676;26.348;2023-03-16T17:43:46;4.07;;;3.10;;
19525;SDS011;9907;42.676;26.348;2023-03-16T17:46:13;7.67;;;4.47;;
19525;SDS011;9907;42.676;26.348;2023-03-16T17:48:42;2.10;;;1.80;;
19525;SDS011;9907;42.676;26.348;2023-03-16T17:51:13;1.43;;;1.33;;
19525;SDS011;9907;42.676;26.348;2023-03-16T17:53:40;2.40;;;2.20;;
19525;SDS011;9907;42.676;26.348;2023-03-16T17:56:13;3.30;;;2.77;;
19525;SDS011;9907;42.676;26.348;2023-03-16T17:58:43;1.73;;;1.40;;
19525;SDS011;9907;42.676;26.348;2023-03-16T18:01:11;1.67;;;1.37;;